sensor_id;sensor_type;location;lat;lon;timestamp;P1;durP1;ratioP1;P2;durP2;ratioP2
7017;SDS011;3549;42.162;24.726;2023-03-31T00:01:33;7.33;;;4.50;;
7017;SDS011;3549;42.162;24.726;2023-03-31T00:03:59;6.97;;;4.53;;
7017;SDS011;3549;42.162;24.726;2023-03-31T00:06:36;7.43;;;4.40;;
7017;SDS011;3549;42.162;24.726;2023-03-31T00:09:06;7.97;;;4.23;;
7017;SDS011;3549;42.162;24.726;2023-03-31T00:11:34;8.43;;;4.57;;
7017;SDS011;3549;42.162;24.726;2023-03-31T00:14:00;7.50;;;4.57;;
7017;SDS011;3549;42.162;24.726;2023-03-31T00:16:25;10.30;;;5.07;;
7017;SDS011;3549;42.162;24.726;2023-03-31T00:18:51;10.67;;;5.33;;
7017;SDS011;3549;42.162;24.726;2023-03-31T00:21:18;10.93;;;5.40;;
7017;SDS011;3549;42.162;24.726;2023-03-31T00:23:52;10.77;;;5.70;;
7017;SDS011;3549;42.162;24.726;2023-03-31T00:26:18;8.77;;;5.57;;
7017;SDS011;3549;42.162;24.726;2023-03-31T00:28:46;11.77;;;6.67;;
7017;SDS011;3549;42.162;24.726;2023-03-31T00:31:11;13.10;;;5.80;;
7017;SDS011;3549;42.162;24.726;2023-03-31T00:33:37;9.63;;;4.67;;
7017;SDS011;3549;42.162;24.726;2023-03-31T00:36:02;10.10;;;4.90;;
7017;SDS011;3549;42.162;24.726;2023-03-31T00:38:30;7.23;;;4.63;;
7017;SDS011;3549;42.162;24.726;2023-03-31T00:40:56;7.63;;;4.57;;
7017;SDS011;3549;42.162;24.726;2023-03-31T00:43:29;7.33;;;4.57;;
7017;SDS011;3549;42.162;24.726;2023-03-31T00:46:02;10.07;;;4.93;;
7017;SDS011;3549;42.162;24.726;2023-03-31T00:48:49;8.47;;;4.77;;
7017;SDS011;3549;42.162;24.726;2023-03-31T00:51:17;8.80;;;5.07;;
7017;SDS011;3549;42.162;24.726;2023-03-31T00:53:47;8.73;;;5.03;;
7017;SDS011;3549;42.162;24.726;2023-03-31T00:56:25;9.70;;;4.70;;
7017;SDS011;3549;42.162;24.726;2023-03-31T00:58:56;8.87;;;4.67;;
7017;SDS011;3549;42.162;24.726;2023-03-31T01:01:26;8.83;;;5.00;;
7017;SDS011;3549;42.162;24.726;2023-03-31T01:03:51;9.17;;;4.83;;
7017;SDS011;3549;42.162;24.726;2023-03-31T01:06:17;7.30;;;4.63;;
7017;SDS011;3549;42.162;24.726;2023-03-31T01:08:44;11.67;;;5.37;;
7017;SDS011;3549;42.162;24.726;2023-03-31T01:11:13;7.57;;;5.00;;
7017;SDS011;3549;42.162;24.726;2023-03-31T01:13:41;7.77;;;4.30;;
7017;SDS011;3549;42.162;24.726;2023-03-31T01:16:07;10.30;;;5.50;;
7017;SDS011;3549;42.162;24.726;2023-03-31T01:18:33;9.93;;;5.20;;
7017;SDS011;3549;42.162;24.726;2023-03-31T01:37:34;12.23;;;6.00;;
7017;SDS011;3549;42.162;24.726;2023-03-31T01:40:25;8.70;;;5.40;;
7017;SDS011;3549;42.162;24.726;2023-03-31T01:43:15;13.20;;;5.20;;
7017;SDS011;3549;42.162;24.726;2023-03-31T01:51:18;10.07;;;5.30;;
7017;SDS011;3549;42.162;24.726;2023-03-31T01:59:18;10.20;;;5.63;;
7017;SDS011;3549;42.162;24.726;2023-03-31T02:01:55;8.70;;;5.43;;
7017;SDS011;3549;42.162;24.726;2023-03-31T02:04:33;10.77;;;5.07;;
7017;SDS011;3549;42.162;24.726;2023-03-31T02:07:06;10.77;;;5.27;;
7017;SDS011;3549;42.162;24.726;2023-03-31T02:09:38;9.03;;;5.27;;
7017;SDS011;3549;42.162;24.726;2023-03-31T02:12:08;11.13;;;5.27;;
7017;SDS011;3549;42.162;24.726;2023-03-31T02:14:36;11.90;;;5.60;;
7017;SDS011;3549;42.162;24.726;2023-03-31T02:17:07;10.60;;;5.50;;
7017;SDS011;3549;42.162;24.726;2023-03-31T02:19:42;10.33;;;5.47;;
7017;SDS011;3549;42.162;24.726;2023-03-31T02:22:10;11.43;;;5.77;;
7017;SDS011;3549;42.162;24.726;2023-03-31T02:24:38;9.37;;;5.83;;
7017;SDS011;3549;42.162;24.726;2023-03-31T02:27:10;10.53;;;5.50;;
7017;SDS011;3549;42.162;24.726;2023-03-31T02:29:42;12.43;;;6.17;;
7017;SDS011;3549;42.162;24.726;2023-03-31T02:32:17;11.83;;;5.70;;
7017;SDS011;3549;42.162;24.726;2023-03-31T02:35:00;10.80;;;5.47;;
7017;SDS011;3549;42.162;24.726;2023-03-31T02:37:27;15.00;;;6.13;;
7017;SDS011;3549;42.162;24.726;2023-03-31T02:39:54;12.17;;;5.77;;
7017;SDS011;3549;42.162;24.726;2023-03-31T02:42:23;9.60;;;5.80;;
7017;SDS011;3549;42.162;24.726;2023-03-31T02:44:49;10.27;;;5.70;;
7017;SDS011;3549;42.162;24.726;2023-03-31T02:47:15;11.30;;;5.80;;
7017;SDS011;3549;42.162;24.726;2023-03-31T02:49:53;10.03;;;5.90;;
7017;SDS011;3549;42.162;24.726;2023-03-31T02:52:28;14.27;;;6.50;;
7017;SDS011;3549;42.162;24.726;2023-03-31T02:55:32;12.83;;;6.03;;
7017;SDS011;3549;42.162;24.726;2023-03-31T02:58:33;18.27;;;6.27;;
7017;SDS011;3549;42.162;24.726;2023-03-31T03:06:41;18.40;;;7.37;;
7017;SDS011;3549;42.162;24.726;2023-03-31T03:14:54;13.13;;;6.90;;
7017;SDS011;3549;42.162;24.726;2023-03-31T03:17:29;11.63;;;6.23;;
7017;SDS011;3549;42.162;24.726;2023-03-31T03:19:59;10.97;;;6.37;;
7017;SDS011;3549;42.162;24.726;2023-03-31T03:22:26;13.40;;;6.23;;
7017;SDS011;3549;42.162;24.726;2023-03-31T03:24:52;11.03;;;6.13;;
7017;SDS011;3549;42.162;24.726;2023-03-31T03:27:18;11.80;;;5.93;;
7017;SDS011;3549;42.162;24.726;2023-03-31T03:29:46;9.90;;;6.23;;
7017;SDS011;3549;42.162;24.726;2023-03-31T03:32:12;15.17;;;6.40;;
7017;SDS011;3549;42.162;24.726;2023-03-31T03:34:38;14.07;;;6.80;;
7017;SDS011;3549;42.162;24.726;2023-03-31T03:37:04;14.57;;;7.00;;
7017;SDS011;3549;42.162;24.726;2023-03-31T03:39:30;31.20;;;13.53;;
7017;SDS011;3549;42.162;24.726;2023-03-31T03:41:55;18.07;;;8.33;;
7017;SDS011;3549;42.162;24.726;2023-03-31T03:44:20;12.50;;;6.80;;
7017;SDS011;3549;42.162;24.726;2023-03-31T03:46:46;12.67;;;6.80;;
7017;SDS011;3549;42.162;24.726;2023-03-31T03:49:11;16.30;;;6.50;;
7017;SDS011;3549;42.162;24.726;2023-03-31T03:51:37;10.97;;;6.23;;
7017;SDS011;3549;42.162;24.726;2023-03-31T03:54:02;12.03;;;6.40;;
7017;SDS011;3549;42.162;24.726;2023-03-31T03:56:27;13.30;;;6.40;;
7017;SDS011;3549;42.162;24.726;2023-03-31T03:58:53;12.97;;;6.10;;
7017;SDS011;3549;42.162;24.726;2023-03-31T04:01:18;10.13;;;5.60;;
7017;SDS011;3549;42.162;24.726;2023-03-31T04:03:45;15.53;;;5.73;;
7017;SDS011;3549;42.162;24.726;2023-03-31T04:06:10;14.67;;;6.97;;
7017;SDS011;3549;42.162;24.726;2023-03-31T04:08:35;11.53;;;6.40;;
7017;SDS011;3549;42.162;24.726;2023-03-31T04:11:01;10.67;;;6.10;;
7017;SDS011;3549;42.162;24.726;2023-03-31T04:13:28;12.57;;;6.57;;
7017;SDS011;3549;42.162;24.726;2023-03-31T04:15:53;14.63;;;7.20;;
7017;SDS011;3549;42.162;24.726;2023-03-31T04:18:19;10.90;;;6.00;;
7017;SDS011;3549;42.162;24.726;2023-03-31T04:20:48;11.73;;;6.00;;
7017;SDS011;3549;42.162;24.726;2023-03-31T04:23:19;13.77;;;6.47;;
7017;SDS011;3549;42.162;24.726;2023-03-31T04:25:47;13.83;;;6.73;;
7017;SDS011;3549;42.162;24.726;2023-03-31T04:28:14;15.40;;;6.97;;
7017;SDS011;3549;42.162;24.726;2023-03-31T04:30:39;16.20;;;8.50;;
7017;SDS011;3549;42.162;24.726;2023-03-31T04:33:05;16.23;;;7.73;;
7017;SDS011;3549;42.162;24.726;2023-03-31T04:35:30;16.07;;;8.87;;
7017;SDS011;3549;42.162;24.726;2023-03-31T04:38:12;15.70;;;8.83;;
7017;SDS011;3549;42.162;24.726;2023-03-31T04:40:37;15.90;;;9.07;;
7017;SDS011;3549;42.162;24.726;2023-03-31T04:43:04;15.40;;;9.23;;
7017;SDS011;3549;42.162;24.726;2023-03-31T04:45:29;19.43;;;10.00;;
7017;SDS011;3549;42.162;24.726;2023-03-31T04:47:55;17.33;;;10.03;;
7017;SDS011;3549;42.162;24.726;2023-03-31T04:50:20;20.43;;;9.80;;
7017;SDS011;3549;42.162;24.726;2023-03-31T04:52:45;18.33;;;9.80;;
7017;SDS011;3549;42.162;24.726;2023-03-31T04:55:11;20.47;;;9.83;;
7017;SDS011;3549;42.162;24.726;2023-03-31T04:57:36;18.50;;;9.50;;
7017;SDS011;3549;42.162;24.726;2023-03-31T05:00:03;14.93;;;9.03;;
7017;SDS011;3549;42.162;24.726;2023-03-31T05:02:32;20.57;;;10.20;;
7017;SDS011;3549;42.162;24.726;2023-03-31T05:04:57;21.20;;;10.67;;
7017;SDS011;3549;42.162;24.726;2023-03-31T05:07:23;17.80;;;9.17;;
7017;SDS011;3549;42.162;24.726;2023-03-31T05:09:48;19.03;;;9.90;;
7017;SDS011;3549;42.162;24.726;2023-03-31T05:12:14;21.50;;;9.80;;
7017;SDS011;3549;42.162;24.726;2023-03-31T05:14:40;20.53;;;10.10;;
7017;SDS011;3549;42.162;24.726;2023-03-31T05:17:05;17.10;;;10.10;;
7017;SDS011;3549;42.162;24.726;2023-03-31T05:19:31;22.57;;;10.90;;
7017;SDS011;3549;42.162;24.726;2023-03-31T05:21:56;42.57;;;20.23;;
7017;SDS011;3549;42.162;24.726;2023-03-31T05:24:21;25.93;;;14.60;;
7017;SDS011;3549;42.162;24.726;2023-03-31T05:26:47;29.17;;;13.50;;
7017;SDS011;3549;42.162;24.726;2023-03-31T05:29:17;25.03;;;11.27;;
7017;SDS011;3549;42.162;24.726;2023-03-31T05:31:43;30.63;;;14.87;;
7017;SDS011;3549;42.162;24.726;2023-03-31T05:34:09;162.00;;;53.70;;
7017;SDS011;3549;42.162;24.726;2023-03-31T05:36:35;70.17;;;29.10;;
7017;SDS011;3549;42.162;24.726;2023-03-31T05:39:01;69.43;;;29.37;;
7017;SDS011;3549;42.162;24.726;2023-03-31T05:41:28;55.30;;;24.60;;
7017;SDS011;3549;42.162;24.726;2023-03-31T05:43:53;52.87;;;25.20;;
7017;SDS011;3549;42.162;24.726;2023-03-31T05:46:18;38.40;;;20.70;;
7017;SDS011;3549;42.162;24.726;2023-03-31T05:48:44;46.40;;;23.23;;
7017;SDS011;3549;42.162;24.726;2023-03-31T05:51:09;71.07;;;31.93;;
7017;SDS011;3549;42.162;24.726;2023-03-31T05:53:35;289.43;;;103.83;;
7017;SDS011;3549;42.162;24.726;2023-03-31T05:56:01;50.57;;;21.57;;
7017;SDS011;3549;42.162;24.726;2023-03-31T05:58:30;40.50;;;18.00;;
7017;SDS011;3549;42.162;24.726;2023-03-31T06:00:59;27.93;;;12.47;;
7017;SDS011;3549;42.162;24.726;2023-03-31T06:03:35;20.40;;;11.10;;
7017;SDS011;3549;42.162;24.726;2023-03-31T06:06:02;17.40;;;9.87;;
7017;SDS011;3549;42.162;24.726;2023-03-31T06:08:32;16.80;;;9.67;;
7017;SDS011;3549;42.162;24.726;2023-03-31T06:10:58;20.60;;;10.30;;
7017;SDS011;3549;42.162;24.726;2023-03-31T06:13:24;20.07;;;10.13;;
7017;SDS011;3549;42.162;24.726;2023-03-31T06:15:56;19.60;;;9.63;;
7017;SDS011;3549;42.162;24.726;2023-03-31T06:18:22;19.13;;;9.30;;
7017;SDS011;3549;42.162;24.726;2023-03-31T06:20:48;24.17;;;12.47;;
7017;SDS011;3549;42.162;24.726;2023-03-31T06:23:16;33.67;;;14.30;;
7017;SDS011;3549;42.162;24.726;2023-03-31T06:25:41;35.20;;;19.00;;
7017;SDS011;3549;42.162;24.726;2023-03-31T06:28:07;35.73;;;14.77;;
7017;SDS011;3549;42.162;24.726;2023-03-31T06:30:33;21.53;;;12.27;;
7017;SDS011;3549;42.162;24.726;2023-03-31T06:32:58;25.90;;;11.80;;
7017;SDS011;3549;42.162;24.726;2023-03-31T06:35:24;32.40;;;14.73;;
7017;SDS011;3549;42.162;24.726;2023-03-31T06:37:50;44.87;;;19.30;;
7017;SDS011;3549;42.162;24.726;2023-03-31T06:40:15;38.47;;;18.23;;
7017;SDS011;3549;42.162;24.726;2023-03-31T06:42:41;35.40;;;16.20;;
7017;SDS011;3549;42.162;24.726;2023-03-31T06:45:06;32.93;;;15.60;;
7017;SDS011;3549;42.162;24.726;2023-03-31T06:47:32;29.87;;;14.10;;
7017;SDS011;3549;42.162;24.726;2023-03-31T06:49:58;32.57;;;13.83;;
7017;SDS011;3549;42.162;24.726;2023-03-31T06:52:23;34.80;;;14.93;;
7017;SDS011;3549;42.162;24.726;2023-03-31T06:54:49;75.67;;;42.03;;
7017;SDS011;3549;42.162;24.726;2023-03-31T06:57:14;51.03;;;27.60;;
7017;SDS011;3549;42.162;24.726;2023-03-31T06:59:40;37.90;;;15.10;;
7017;SDS011;3549;42.162;24.726;2023-03-31T07:02:06;39.30;;;15.33;;
7017;SDS011;3549;42.162;24.726;2023-03-31T07:04:31;31.20;;;14.07;;
7017;SDS011;3549;42.162;24.726;2023-03-31T07:06:57;33.43;;;15.53;;
7017;SDS011;3549;42.162;24.726;2023-03-31T07:09:23;39.63;;;22.00;;
7017;SDS011;3549;42.162;24.726;2023-03-31T07:11:48;35.17;;;17.53;;
7017;SDS011;3549;42.162;24.726;2023-03-31T07:14:14;34.80;;;15.47;;
7017;SDS011;3549;42.162;24.726;2023-03-31T07:16:39;33.00;;;14.90;;
7017;SDS011;3549;42.162;24.726;2023-03-31T07:19:05;33.10;;;16.23;;
7017;SDS011;3549;42.162;24.726;2023-03-31T07:21:32;40.53;;;15.23;;
7017;SDS011;3549;42.162;24.726;2023-03-31T07:23:57;32.97;;;14.63;;
7017;SDS011;3549;42.162;24.726;2023-03-31T07:26:23;35.20;;;15.40;;
7017;SDS011;3549;42.162;24.726;2023-03-31T07:28:48;27.53;;;13.67;;
7017;SDS011;3549;42.162;24.726;2023-03-31T07:31:15;23.87;;;14.37;;
7017;SDS011;3549;42.162;24.726;2023-03-31T07:33:41;27.00;;;13.27;;
7017;SDS011;3549;42.162;24.726;2023-03-31T07:36:07;23.33;;;11.87;;
7017;SDS011;3549;42.162;24.726;2023-03-31T07:38:33;26.50;;;11.03;;
7017;SDS011;3549;42.162;24.726;2023-03-31T07:40:59;24.20;;;12.93;;
7017;SDS011;3549;42.162;24.726;2023-03-31T07:43:24;19.33;;;10.93;;
7017;SDS011;3549;42.162;24.726;2023-03-31T07:45:50;19.57;;;10.90;;
7017;SDS011;3549;42.162;24.726;2023-03-31T07:48:15;19.97;;;10.40;;
7017;SDS011;3549;42.162;24.726;2023-03-31T07:50:40;19.47;;;11.00;;
7017;SDS011;3549;42.162;24.726;2023-03-31T07:53:06;22.63;;;12.10;;
7017;SDS011;3549;42.162;24.726;2023-03-31T07:55:32;21.97;;;11.60;;
7017;SDS011;3549;42.162;24.726;2023-03-31T07:57:58;20.17;;;10.53;;
7017;SDS011;3549;42.162;24.726;2023-03-31T08:00:23;18.57;;;10.60;;
7017;SDS011;3549;42.162;24.726;2023-03-31T08:02:52;19.67;;;10.50;;
7017;SDS011;3549;42.162;24.726;2023-03-31T08:05:17;19.70;;;10.53;;
7017;SDS011;3549;42.162;24.726;2023-03-31T08:07:45;21.70;;;13.13;;
7017;SDS011;3549;42.162;24.726;2023-03-31T08:10:13;20.23;;;11.70;;
7017;SDS011;3549;42.162;24.726;2023-03-31T08:12:42;26.90;;;13.73;;
7017;SDS011;3549;42.162;24.726;2023-03-31T08:15:08;24.83;;;12.60;;
7017;SDS011;3549;42.162;24.726;2023-03-31T08:17:34;19.20;;;8.67;;
7017;SDS011;3549;42.162;24.726;2023-03-31T08:19:59;19.43;;;10.00;;
7017;SDS011;3549;42.162;24.726;2023-03-31T08:22:25;15.60;;;8.60;;
7017;SDS011;3549;42.162;24.726;2023-03-31T08:24:50;20.47;;;9.93;;
7017;SDS011;3549;42.162;24.726;2023-03-31T08:27:16;21.33;;;11.20;;
7017;SDS011;3549;42.162;24.726;2023-03-31T08:29:41;21.40;;;11.93;;
7017;SDS011;3549;42.162;24.726;2023-03-31T08:32:07;21.57;;;11.57;;
7017;SDS011;3549;42.162;24.726;2023-03-31T08:34:32;14.93;;;6.63;;
7017;SDS011;3549;42.162;24.726;2023-03-31T08:36:58;13.63;;;7.60;;
7017;SDS011;3549;42.162;24.726;2023-03-31T08:39:23;15.00;;;7.57;;
7017;SDS011;3549;42.162;24.726;2023-03-31T08:47:04;14.30;;;8.30;;
7017;SDS011;3549;42.162;24.726;2023-03-31T08:49:43;11.80;;;6.23;;
7017;SDS011;3549;42.162;24.726;2023-03-31T08:52:18;12.13;;;6.80;;
7017;SDS011;3549;42.162;24.726;2023-03-31T08:54:53;12.17;;;6.70;;
7017;SDS011;3549;42.162;24.726;2023-03-31T08:57:24;11.70;;;6.90;;
7017;SDS011;3549;42.162;24.726;2023-03-31T08:59:52;14.93;;;7.03;;
7017;SDS011;3549;42.162;24.726;2023-03-31T09:10:34;13.03;;;7.00;;
7017;SDS011;3549;42.162;24.726;2023-03-31T09:15:53;9.57;;;6.10;;
7017;SDS011;3549;42.162;24.726;2023-03-31T09:18:30;5.83;;;4.70;;
7017;SDS011;3549;42.162;24.726;2023-03-31T09:23:45;8.70;;;5.93;;
7017;SDS011;3549;42.162;24.726;2023-03-31T09:31:53;9.97;;;5.60;;
7017;SDS011;3549;42.162;24.726;2023-03-31T09:34:27;11.13;;;4.97;;
7017;SDS011;3549;42.162;24.726;2023-03-31T09:36:56;15.87;;;7.47;;
7017;SDS011;3549;42.162;24.726;2023-03-31T09:39:21;8.60;;;5.10;;
7017;SDS011;3549;42.162;24.726;2023-03-31T09:41:48;8.53;;;4.93;;
7017;SDS011;3549;42.162;24.726;2023-03-31T09:44:30;7.93;;;4.67;;
7017;SDS011;3549;42.162;24.726;2023-03-31T09:47:03;8.27;;;4.80;;
7017;SDS011;3549;42.162;24.726;2023-03-31T09:49:34;9.23;;;5.00;;
7017;SDS011;3549;42.162;24.726;2023-03-31T09:52:05;7.50;;;4.27;;
7017;SDS011;3549;42.162;24.726;2023-03-31T09:57:21;10.60;;;5.33;;
7017;SDS011;3549;42.162;24.726;2023-03-31T09:59:50;51.07;;;27.87;;
7017;SDS011;3549;42.162;24.726;2023-03-31T10:02:32;19.40;;;10.10;;
7017;SDS011;3549;42.162;24.726;2023-03-31T10:05:04;12.43;;;6.97;;
7017;SDS011;3549;42.162;24.726;2023-03-31T10:07:32;7.20;;;3.97;;
7017;SDS011;3549;42.162;24.726;2023-03-31T10:09:58;8.40;;;4.50;;
7017;SDS011;3549;42.162;24.726;2023-03-31T10:12:27;12.70;;;7.10;;
7017;SDS011;3549;42.162;24.726;2023-03-31T10:15:00;11.23;;;6.03;;
7017;SDS011;3549;42.162;24.726;2023-03-31T10:17:39;15.13;;;6.77;;
7017;SDS011;3549;42.162;24.726;2023-03-31T10:20:38;9.83;;;6.43;;
7017;SDS011;3549;42.162;24.726;2023-03-31T10:23:16;12.80;;;8.13;;
7017;SDS011;3549;42.162;24.726;2023-03-31T10:25:48;7.53;;;5.00;;
7017;SDS011;3549;42.162;24.726;2023-03-31T10:28:15;9.30;;;6.00;;
7017;SDS011;3549;42.162;24.726;2023-03-31T10:30:46;8.40;;;5.27;;
7017;SDS011;3549;42.162;24.726;2023-03-31T10:33:15;8.33;;;5.77;;
7017;SDS011;3549;42.162;24.726;2023-03-31T10:35:46;11.30;;;7.00;;
7017;SDS011;3549;42.162;24.726;2023-03-31T10:38:14;10.53;;;5.20;;
7017;SDS011;3549;42.162;24.726;2023-03-31T10:40:51;10.47;;;5.90;;
7017;SDS011;3549;42.162;24.726;2023-03-31T10:43:20;9.40;;;5.70;;
7017;SDS011;3549;42.162;24.726;2023-03-31T10:45:55;11.60;;;5.80;;
7017;SDS011;3549;42.162;24.726;2023-03-31T10:48:28;8.33;;;5.93;;
7017;SDS011;3549;42.162;24.726;2023-03-31T10:51:14;9.50;;;6.83;;
7017;SDS011;3549;42.162;24.726;2023-03-31T11:04:37;9.43;;;6.10;;
7017;SDS011;3549;42.162;24.726;2023-03-31T11:07:36;8.37;;;5.90;;
7017;SDS011;3549;42.162;24.726;2023-03-31T11:12:38;10.77;;;5.83;;
7017;SDS011;3549;42.162;24.726;2023-03-31T11:23:42;9.87;;;6.47;;
7017;SDS011;3549;42.162;24.726;2023-03-31T11:31:58;14.00;;;6.83;;
7017;SDS011;3549;42.162;24.726;2023-03-31T11:34:45;10.23;;;5.63;;
7017;SDS011;3549;42.162;24.726;2023-03-31T11:40:31;8.40;;;5.53;;
7017;SDS011;3549;42.162;24.726;2023-03-31T11:43:06;12.10;;;6.43;;
7017;SDS011;3549;42.162;24.726;2023-03-31T11:45:38;14.27;;;6.70;;
7017;SDS011;3549;42.162;24.726;2023-03-31T11:48:16;8.30;;;5.23;;
7017;SDS011;3549;42.162;24.726;2023-03-31T11:50:52;11.30;;;6.37;;
7017;SDS011;3549;42.162;24.726;2023-03-31T11:53:23;12.67;;;6.47;;
7017;SDS011;3549;42.162;24.726;2023-03-31T11:55:57;13.87;;;7.20;;
7017;SDS011;3549;42.162;24.726;2023-03-31T11:58:29;11.00;;;5.90;;
7017;SDS011;3549;42.162;24.726;2023-03-31T12:01:06;11.20;;;5.70;;
7017;SDS011;3549;42.162;24.726;2023-03-31T12:03:51;10.07;;;5.80;;
7017;SDS011;3549;42.162;24.726;2023-03-31T12:06:21;11.25;;;5.35;;
7017;SDS011;3549;42.162;24.726;2023-03-31T12:09:02;6.38;;;5.18;;
7017;SDS011;3549;42.162;24.726;2023-03-31T12:17:42;11.30;;;8.55;;
7017;SDS011;3549;42.162;24.726;2023-03-31T12:20:18;8.55;;;5.45;;
7017;SDS011;3549;42.162;24.726;2023-03-31T12:22:50;8.20;;;4.60;;
7017;SDS011;3549;42.162;24.726;2023-03-31T12:25:20;7.65;;;4.32;;
7017;SDS011;3549;42.162;24.726;2023-03-31T12:27:52;8.77;;;4.35;;
7017;SDS011;3549;42.162;24.726;2023-03-31T12:32:57;8.52;;;4.30;;
7017;SDS011;3549;42.162;24.726;2023-03-31T12:38:24;8.50;;;3.60;;
7017;SDS011;3549;42.162;24.726;2023-03-31T12:41:06;7.65;;;3.78;;
7017;SDS011;3549;42.162;24.726;2023-03-31T12:57:20;5.38;;;3.30;;
7017;SDS011;3549;42.162;24.726;2023-03-31T13:02:43;9.80;;;3.42;;
7017;SDS011;3549;42.162;24.726;2023-03-31T13:08:11;11.55;;;4.30;;
7017;SDS011;3549;42.162;24.726;2023-03-31T13:14:04;9.77;;;3.50;;
7017;SDS011;3549;42.162;24.726;2023-03-31T13:16:47;5.90;;;3.80;;
7017;SDS011;3549;42.162;24.726;2023-03-31T13:19:27;7.32;;;4.60;;
7017;SDS011;3549;42.162;24.726;2023-03-31T13:21:56;10.38;;;5.75;;
7017;SDS011;3549;42.162;24.726;2023-03-31T13:24:24;10.90;;;6.00;;
7017;SDS011;3549;42.162;24.726;2023-03-31T13:26:51;6.72;;;4.13;;
7017;SDS011;3549;42.162;24.726;2023-03-31T13:29:19;16.67;;;10.65;;
7017;SDS011;3549;42.162;24.726;2023-03-31T13:34:31;12.83;;;8.57;;
7017;SDS011;3549;42.162;24.726;2023-03-31T13:42:40;8.37;;;3.90;;
7017;SDS011;3549;42.162;24.726;2023-03-31T13:51:04;6.60;;;4.30;;
7017;SDS011;3549;42.162;24.726;2023-03-31T14:06:59;7.60;;;4.93;;
7017;SDS011;3549;42.162;24.726;2023-03-31T14:09:41;10.10;;;5.30;;
7017;SDS011;3549;42.162;24.726;2023-03-31T14:12:30;8.75;;;4.78;;
7017;SDS011;3549;42.162;24.726;2023-03-31T14:15:00;10.23;;;5.55;;
7017;SDS011;3549;42.162;24.726;2023-03-31T14:17:27;11.23;;;7.28;;
7017;SDS011;3549;42.162;24.726;2023-03-31T14:36:53;7.27;;;4.50;;
7017;SDS011;3549;42.162;24.726;2023-03-31T14:39:34;10.77;;;6.97;;
7017;SDS011;3549;42.162;24.726;2023-03-31T14:42:05;9.70;;;5.80;;
7017;SDS011;3549;42.162;24.726;2023-03-31T14:44:37;17.37;;;11.93;;
7017;SDS011;3549;42.162;24.726;2023-03-31T14:47:04;6.67;;;4.80;;
7017;SDS011;3549;42.162;24.726;2023-03-31T14:49:37;6.90;;;4.30;;
7017;SDS011;3549;42.162;24.726;2023-03-31T14:54:59;11.07;;;6.10;;
7017;SDS011;3549;42.162;24.726;2023-03-31T14:57:32;12.80;;;5.87;;
7017;SDS011;3549;42.162;24.726;2023-03-31T15:00:01;8.63;;;4.57;;
7017;SDS011;3549;42.162;24.726;2023-03-31T15:02:33;8.90;;;5.13;;
7017;SDS011;3549;42.162;24.726;2023-03-31T15:05:08;7.18;;;4.38;;
7017;SDS011;3549;42.162;24.726;2023-03-31T15:07:39;9.70;;;6.20;;
7017;SDS011;3549;42.162;24.726;2023-03-31T15:10:05;10.77;;;6.30;;
7017;SDS011;3549;42.162;24.726;2023-03-31T15:12:31;16.05;;;8.60;;
7017;SDS011;3549;42.162;24.726;2023-03-31T15:15:00;12.27;;;6.20;;
7017;SDS011;3549;42.162;24.726;2023-03-31T15:17:31;19.17;;;9.97;;
7017;SDS011;3549;42.162;24.726;2023-03-31T15:22:55;20.00;;;12.87;;
7017;SDS011;3549;42.162;24.726;2023-03-31T15:25:31;14.70;;;8.70;;
7017;SDS011;3549;42.162;24.726;2023-03-31T15:28:02;11.33;;;8.10;;
7017;SDS011;3549;42.162;24.726;2023-03-31T15:30:30;14.07;;;9.67;;
7017;SDS011;3549;42.162;24.726;2023-03-31T15:32:56;10.90;;;7.90;;
7017;SDS011;3549;42.162;24.726;2023-03-31T15:35:24;12.40;;;7.90;;
7017;SDS011;3549;42.162;24.726;2023-03-31T15:37:56;13.07;;;7.68;;
7017;SDS011;3549;42.162;24.726;2023-03-31T15:42:52;9.23;;;6.50;;
7017;SDS011;3549;42.162;24.726;2023-03-31T15:47:55;10.48;;;6.35;;
7017;SDS011;3549;42.162;24.726;2023-03-31T15:50:25;12.95;;;7.97;;
7017;SDS011;3549;42.162;24.726;2023-03-31T15:52:53;17.65;;;10.02;;
7017;SDS011;3549;42.162;24.726;2023-03-31T15:57:47;20.85;;;13.45;;
7017;SDS011;3549;42.162;24.726;2023-03-31T16:03:17;142.82;;;71.43;;
7017;SDS011;3549;42.162;24.726;2023-03-31T16:08:29;76.30;;;41.03;;
7017;SDS011;3549;42.162;24.726;2023-03-31T16:11:21;43.07;;;22.87;;
7017;SDS011;3549;42.162;24.726;2023-03-31T16:13:53;44.27;;;18.10;;
7017;SDS011;3549;42.162;24.726;2023-03-31T16:16:24;36.57;;;15.40;;
7017;SDS011;3549;42.162;24.726;2023-03-31T16:18:53;25.03;;;13.13;;
7017;SDS011;3549;42.162;24.726;2023-03-31T16:21:37;28.70;;;11.67;;
7017;SDS011;3549;42.162;24.726;2023-03-31T16:24:06;21.00;;;10.17;;
7017;SDS011;3549;42.162;24.726;2023-03-31T16:26:32;17.30;;;8.40;;
7017;SDS011;3549;42.162;24.726;2023-03-31T16:28:59;10.47;;;4.37;;
7017;SDS011;3549;42.162;24.726;2023-03-31T16:33:58;8.60;;;4.30;;
7017;SDS011;3549;42.162;24.726;2023-03-31T16:36:24;8.60;;;4.53;;
7017;SDS011;3549;42.162;24.726;2023-03-31T16:38:52;9.63;;;5.50;;
7017;SDS011;3549;42.162;24.726;2023-03-31T16:41:18;99.67;;;39.83;;
7017;SDS011;3549;42.162;24.726;2023-03-31T16:43:45;83.07;;;38.53;;
7017;SDS011;3549;42.162;24.726;2023-03-31T16:46:11;140.00;;;72.17;;
7017;SDS011;3549;42.162;24.726;2023-03-31T16:48:36;81.63;;;35.00;;
7017;SDS011;3549;42.162;24.726;2023-03-31T16:51:02;41.90;;;18.70;;
7017;SDS011;3549;42.162;24.726;2023-03-31T16:53:29;47.47;;;21.77;;
7017;SDS011;3549;42.162;24.726;2023-03-31T16:55:57;38.33;;;17.57;;
7017;SDS011;3549;42.162;24.726;2023-03-31T16:58:23;17.77;;;8.10;;
7017;SDS011;3549;42.162;24.726;2023-03-31T17:00:50;69.03;;;37.80;;
7017;SDS011;3549;42.162;24.726;2023-03-31T17:03:17;68.37;;;37.20;;
7017;SDS011;3549;42.162;24.726;2023-03-31T17:05:44;83.37;;;41.87;;
7017;SDS011;3549;42.162;24.726;2023-03-31T17:08:12;58.27;;;31.27;;
7017;SDS011;3549;42.162;24.726;2023-03-31T17:10:39;35.87;;;19.40;;
7017;SDS011;3549;42.162;24.726;2023-03-31T17:13:07;30.93;;;13.20;;
7017;SDS011;3549;42.162;24.726;2023-03-31T17:15:33;23.87;;;11.97;;
7017;SDS011;3549;42.162;24.726;2023-03-31T17:18:00;28.30;;;16.77;;
7017;SDS011;3549;42.162;24.726;2023-03-31T17:20:27;222.47;;;85.63;;
7017;SDS011;3549;42.162;24.726;2023-03-31T17:22:53;147.13;;;65.30;;
7017;SDS011;3549;42.162;24.726;2023-03-31T17:25:18;90.13;;;51.53;;
7017;SDS011;3549;42.162;24.726;2023-03-31T17:27:43;84.93;;;41.23;;
7017;SDS011;3549;42.162;24.726;2023-03-31T17:30:09;72.43;;;33.00;;
7017;SDS011;3549;42.162;24.726;2023-03-31T17:32:35;61.07;;;27.60;;
7017;SDS011;3549;42.162;24.726;2023-03-31T17:35:01;32.40;;;16.53;;
7017;SDS011;3549;42.162;24.726;2023-03-31T17:37:27;19.77;;;9.03;;
7017;SDS011;3549;42.162;24.726;2023-03-31T17:39:53;12.47;;;7.40;;
7017;SDS011;3549;42.162;24.726;2023-03-31T17:42:19;15.07;;;7.00;;
7017;SDS011;3549;42.162;24.726;2023-03-31T17:44:45;14.40;;;7.17;;
7017;SDS011;3549;42.162;24.726;2023-03-31T17:47:11;13.77;;;7.97;;
7017;SDS011;3549;42.162;24.726;2023-03-31T17:49:37;15.93;;;8.10;;
7017;SDS011;3549;42.162;24.726;2023-03-31T17:52:03;17.13;;;8.20;;
7017;SDS011;3549;42.162;24.726;2023-03-31T17:54:29;17.73;;;8.30;;
7017;SDS011;3549;42.162;24.726;2023-03-31T17:56:54;16.30;;;8.83;;
7017;SDS011;3549;42.162;24.726;2023-03-31T17:59:20;20.17;;;9.93;;
7017;SDS011;3549;42.162;24.726;2023-03-31T18:01:46;23.10;;;10.27;;
7017;SDS011;3549;42.162;24.726;2023-03-31T18:04:12;18.90;;;9.70;;
7017;SDS011;3549;42.162;24.726;2023-03-31T18:06:38;24.57;;;10.23;;
7017;SDS011;3549;42.162;24.726;2023-03-31T18:09:05;19.57;;;9.10;;
7017;SDS011;3549;42.162;24.726;2023-03-31T18:11:32;16.47;;;8.53;;
7017;SDS011;3549;42.162;24.726;2023-03-31T18:13:58;17.60;;;9.10;;
7017;SDS011;3549;42.162;24.726;2023-03-31T18:16:27;16.53;;;9.00;;